Terminal Aerodrome Forecast
Issued by NWS Cleveland, OH

Home | Current Version | Previous Version | Text Only | Print | Product List | Glossary On
Versions: 1 2 3 4 5 6 7 8 9 10 11 12 13 14 15 16 17
000
FTUS41 KCLE 281132
TAFCAK
TAF
KCAK 281132Z 2812/2912 18006KT 5SM BR BKN250
     FM281230 18006KT P6SM SCT120 BKN250
     FM281700 20010G18KT P6SM BKN050 BKN250
     FM290000 20006KT P6SM SCT100=

USA.gov is the U.S. government's official web portal to all federal, state and local government web resources and services.